Haines Airport Haines US
ICAO: PAHN
IATA:
Category: Medium
Scheduled Services:

Elevation: 15 ft
TransAlt. 18000 ft.

Airport Communications:
ASOS:135.75
ANCHORAGE CNTR:132.3
CTAF:122.9
JUNEAU RDO:122.6
TWEB:24.5

PAHN Zoom In..

Runways:

(A) RW 08 length 4000 ft width 100 ft
---- / hdg 86

(B) RW 26 length 4000 ft width 100 ft
---- / hdg 266

Location; PAHN
Day. 25 / Time. 09.54 Zulu
* Altimeter: 30.26
* Temperature: 06° c. 42.8°f.
* Wind from: 110° Speed 12 kn with Gusts up to 22 kn.
Dewpoint: 03° c.
Visibility: 10 Statute Miles.
Clouds: Scattered 5500 ft.
Clouds: Overcast 7000 ft.

PAHN 250954Z AUTO 11012G22KT 10SM SCT055 OVC070 06/03 A3026 RMK AO2 SLP250 T00560033 TSNO


Wind From 110°
Speed 12 kn.

  YouTube Music Video
 
jpsmedia.com for Web Design  worldairports.se 2018   terms of use